Time;durP1;ratioP1;P1;durP2;ratioP2;P2;SDS_P1;SDS_P2;PMS_P1;PMS_P2;Temp;Humidity;BMP_temperature;BMP_pressure;BME280_temperature;BME280_humidity;BME280_pressure;Samples;Min_cycle;Max_cycle;Signal;HPM_P1;HPM_P2
2024/02/22 00:02:21;;;;;;;;;;;;;;;14.42;100.00;102070.75;143733;985;47010;-85
2024/02/22 00:04:48;;;;;;;;;;;;;;;14.34;100.00;102069.03;143731;975;48002;-83
2024/02/22 00:07:16;;;;;;;;;;;;;;;14.25;100.00;102073.69;143733;984;47008;-84
2024/02/22 00:09:42;;;;;;;;;;;;;;;14.24;100.00;102069.31;143739;981;46000;-84
2024/02/22 00:12:09;;;;;;;;;;;;;;;14.26;100.00;102069.16;143736;985;47010;-83
2024/02/22 00:14:35;;;;;;;;;;;;;;;14.29;100.00;102063.38;143736;978;46002;-84
2024/02/22 00:17:02;;;;;;;;;;;;;;;14.34;100.00;102065.50;143734;985;47008;-83
2024/02/22 00:19:28;;;;;;;;;;;;;;;14.25;100.00;102070.16;143740;982;47000;-84
2024/02/22 00:21:55;;;;;;;;;;;;;;;14.24;100.00;102061.22;143733;985;47010;-83
2024/02/22 00:24:21;;;;;;;;;;;;;;;14.24;100.00;102058.50;143739;967;45960;-83
2024/02/22 00:26:48;;;;;;;;;;;;;;;14.19;100.00;102058.25;143734;986;47008;-83
2024/02/22 00:29:14;;;;;;;;;;;;;;;14.14;100.00;102065.25;143740;982;46000;-84
2024/02/22 00:31:41;;;;;;;;;;;;;;;14.13;100.00;102058.16;143736;984;46010;-83
2024/02/22 00:34:07;;;;;;;;;;;;;;;14.08;100.00;102061.44;143734;977;48002;-84
2024/02/22 00:36:40;;;;;;;;;;;;;;;14.06;100.00;102063.47;143736;985;47000;-84
2024/02/22 00:39:08;;;;;;;;;;;;;;;14.06;100.00;102050.81;143742;981;45012;-84
2024/02/22 00:41:34;;;;;;;;;;;;;;;14.03;100.00;102062.00;143739;985;45934;-83
2024/02/22 00:44:01;;;;;;;;;;;;;;;13.99;100.00;102049.91;143739;978;45942;-82
2024/02/22 00:46:27;;;;;;;;;;;;;;;13.91;100.00;102047.31;143739;985;45932;-83
2024/02/22 00:48:54;;;;;;;;;;;;;;;13.83;100.00;102042.84;143742;982;45012;-82
2024/02/22 00:51:21;;;;;;;;;;;;;;;13.78;100.00;102046.09;143738;985;46010;-86
2024/02/22 00:53:47;;;;;;;;;;;;;;;13.77;100.00;102041.72;143742;977;45942;-84
2024/02/22 00:56:15;;;;;;;;;;;;;;;13.78;100.00;102043.41;143733;985;47004;-84
2024/02/22 00:58:42;;;;;;;;;;;;;;;13.75;100.00;102045.62;143742;982;45012;-83
2024/02/22 01:01:09;;;;;;;;;;;;;;;13.76;100.00;102039.22;143739;984;45934;-86
2024/02/22 01:03:35;;;;;;;;;;;;;;;13.73;100.00;102029.63;143740;977;45942;-84
2024/02/22 01:06:02;;;;;;;;;;;;;;;13.71;100.00;102033.53;143739;985;45932;-83
2024/02/22 01:08:28;;;;;;;;;;;;;;;13.67;100.00;102029.56;143742;982;45012;-84
2024/02/22 01:10:54;;;;;;;;;;;;;;;13.62;100.00;102025.53;143736;985;47002;-85
2024/02/22 01:13:22;;;;;;;;;;;;;;;13.59;100.00;102025.09;143739;978;45942;-84
2024/02/22 01:15:49;;;;;;;;;;;;;;;13.54;100.00;102019.41;143739;985;45932;-83
2024/02/22 01:18:15;;;;;;;;;;;;;;;13.51;100.00;102011.66;143742;982;45012;-84
2024/02/22 01:20:41;;;;;;;;;;;;;;;13.54;100.00;102011.31;143730;986;48010;-84
2024/02/22 01:23:08;;;;;;;;;;;;;;;13.55;100.00;102015.69;143735;977;48003;-85
2024/02/22 01:25:34;;;;;;;;;;;;;;;13.50;100.00;102013.53;143739;985;45931;-84
2024/02/22 01:28:00;;;;;;;;;;;;;;;13.48;100.00;102007.50;143737;982;47000;-84
2024/02/22 01:30:27;;;;;;;;;;;;;;;13.50;100.00;101994.66;143738;985;46011;-83
2024/02/22 01:32:53;;;;;;;;;;;;;;;13.54;100.00;101992.41;143739;977;45942;-84
2024/02/22 01:35:19;;;;;;;;;;;;;;;13.56;100.00;101993.88;143739;986;46008;-83
2024/02/22 01:37:46;;;;;;;;;;;;;;;13.55;100.00;101997.59;143739;982;48000;-85
2024/02/22 01:40:12;;;;;;;;;;;;;;;13.53;100.00;101990.72;143734;985;47010;-85
2024/02/22 01:42:41;;;;;;;;;;;;;;;13.49;100.00;101996.50;143738;978;46011;-84
2024/02/22 01:45:08;;;;;;;;;;;;;;;13.44;100.00;101990.81;143735;983;47009;-83
2024/02/22 01:47:35;;;;;;;;;;;;;;;13.46;100.00;101987.94;143730;982;49008;-84
2024/02/22 01:50:01;;;;;;;;;;;;;;;13.47;100.00;101989.63;143736;985;47010;-84
2024/02/22 01:52:28;;;;;;;;;;;;;;;13.40;100.00;101983.25;143734;978;47002;-84
2024/02/22 01:54:55;;;;;;;;;;;;;;;13.38;100.00;101977.19;143735;984;46000;-84
2024/02/22 01:57:22;;;;;;;;;;;;;;;13.41;100.00;101976.88;143738;982;48000;-84
2024/02/22 01:59:48;;;;;;;;;;;;;;;13.40;100.00;101984.12;143738;985;46010;-85
2024/02/22 02:02:15;;;;;;;;;;;;;;;13.34;100.00;101976.75;143735;977;47002;-83
2024/02/22 02:04:42;;;;;;;;;;;;;;;13.25;100.00;101978.69;143739;985;45932;-84
2024/02/22 02:07:08;;;;;;;;;;;;;;;13.26;100.00;101983.06;143732;982;50000;-85
2024/02/22 02:09:34;;;;;;;;;;;;;;;13.24;100.00;101981.59;143737;985;47010;-83
2024/02/22 02:12:08;;;;;;;;;;;;;;;13.31;100.00;101986.06;143737;978;46002;-85
2024/02/22 02:14:38;;;;;;;;;;;;;;;13.39;100.00;101985.13;143738;985;46000;-83
2024/02/22 02:17:04;;;;;;;;;;;;;;;13.40;100.00;101983.25;143739;981;46000;-85
2024/02/22 02:19:32;;;;;;;;;;;;;;;13.39;100.00;101981.56;143738;986;45934;-84
2024/02/22 02:22:07;;;;;;;;;;;;;;;13.32;100.00;101985.03;143738;978;46011;-86
2024/02/22 02:25:05;;;;;;;;;;;;;;;13.31;100.00;101980.66;143739;982;45932;-85
2024/02/22 02:27:31;;;;;;;;;;;;;;;13.35;100.00;101990.03;143732;982;49000;-83
2024/02/22 02:29:57;;;;;;;;;;;;;;;13.36;100.00;101977.41;143739;985;45934;-85
2024/02/22 02:32:24;;;;;;;;;;;;;;;13.33;100.00;101978.59;143736;977;47002;-84
2024/02/22 02:34:50;;;;;;;;;;;;;;;13.34;100.00;101974.03;143738;986;46008;-84
2024/02/22 02:37:16;;;;;;;;;;;;;;;13.29;100.00;101977.31;143739;982;47000;-83
2024/02/22 02:39:43;;;;;;;;;;;;;;;13.24;100.00;101978.91;143733;985;47010;-84
2024/02/22 02:42:09;;;;;;;;;;;;;;;13.23;100.00;101980.75;143738;978;46002;-84
2024/02/22 02:44:36;;;;;;;;;;;;;;;13.17;100.00;101976.94;143738;985;46008;-85
2024/02/22 02:47:06;;;;;;;;;;;;;;;13.08;100.00;101977.19;143739;982;47000;-84
2024/02/22 02:49:32;;;;;;;;;;;;;;;12.99;100.00;101977.25;143735;975;47010;-85
2024/02/22 02:51:59;;;;;;;;;;;;;;;12.89;100.00;101977.53;143739;978;45942;-85
2024/02/22 02:54:25;;;;;;;;;;;;;;;12.86;100.00;101979.75;143740;985;45931;-85
2024/02/22 02:56:52;;;;;;;;;;;;;;;12.92;100.00;101976.34;143742;982;45014;-85
2024/02/22 02:59:18;;;;;;;;;;;;;;;12.77;100.00;101981.69;143739;985;45934;-84
2024/02/22 03:01:47;;;;;;;;;;;;;;;12.79;100.00;101979.66;143734;977;47010;-85
2024/02/22 03:04:13;;;;;;;;;;;;;;;12.83;100.00;101972.87;143739;985;45931;-84
2024/02/22 03:06:40;;;;;;;;;;;;;;;12.81;100.00;101974.06;143733;982;47006;-84
2024/02/22 03:09:06;;;;;;;;;;;;;;;12.76;100.00;101980.00;143736;985;46002;-85
2024/02/22 03:11:32;;;;;;;;;;;;;;;12.76;100.00;101981.88;143739;978;45942;-84
2024/02/22 03:13:59;;;;;;;;;;;;;;;12.64;100.00;101979.59;143739;985;45932;-85
2024/02/22 03:16:25;;;;;;;;;;;;;;;12.58;100.00;101975.78;143742;981;45012;-84
2024/02/22 03:18:51;;;;;;;;;;;;;;;12.77;100.00;101978.16;143735;986;47010;-83
2024/02/22 03:21:18;;;;;;;;;;;;;;;12.82;100.00;101971.19;143739;978;45942;-84
2024/02/22 03:23:44;;;;;;;;;;;;;;;12.85;100.00;101970.84;143739;985;45932;-85
2024/02/22 03:26:10;;;;;;;;;;;;;;;12.87;100.00;101962.56;143734;982;47000;-85
2024/02/22 03:28:37;;;;;;;;;;;;;;;12.90;100.00;101964.88;143739;985;45934;-84
2024/02/22 03:31:04;;;;;;;;;;;;;;;12.88;100.00;101966.94;143738;977;45943;-84
2024/02/22 03:33:30;;;;;;;;;;;;;;;12.85;100.00;101970.84;143739;985;45931;-83
2024/02/22 03:36:00;;;;;;;;;;;;;;;12.83;100.00;101969.31;143743;982;45013;-84
2024/02/22 03:38:26;;;;;;;;;;;;;;;12.87;100.00;101965.25;143739;984;45935;-84
2024/02/22 03:40:53;;;;;;;;;;;;;;;12.87;100.00;101968.81;143726;978;50002;-85
2024/02/22 03:43:19;;;;;;;;;;;;;;;12.88;100.00;101977.72;143741;986;45932;-84
2024/02/22 03:45:46;;;;;;;;;;;;;;;12.86;100.00;101972.53;143742;981;45012;-84
2024/02/22 03:48:12;;;;;;;;;;;;;;;12.84;100.00;101971.84;143736;985;47010;-84
2024/02/22 03:50:39;;;;;;;;;;;;;;;12.79;100.00;101974.25;143735;978;48002;-84
2024/02/22 03:53:05;;;;;;;;;;;;;;;12.76;100.00;101977.31;143734;985;47008;-84
2024/02/22 03:55:31;;;;;;;;;;;;;;;12.70;100.00;101978.06;143740;982;46008;-83
2024/02/22 03:57:58;;;;;;;;;;;;;;;12.61;100.00;101979.13;143738;986;46010;-84
2024/02/22 04:00:24;;;;;;;;;;;;;;;12.57;100.00;101984.06;143736;977;47002;-84
2024/02/22 04:02:50;;;;;;;;;;;;;;;12.53;100.00;101980.84;143739;986;45932;-84
2024/02/22 04:05:17;;;;;;;;;;;;;;;12.58;100.00;101986.56;143742;982;45013;-83
2024/02/22 04:07:43;;;;;;;;;;;;;;;12.64;100.00;101976.91;143738;979;46029;-83
2024/02/22 04:10:10;;;;;;;;;;;;;;;12.57;100.00;101979.47;143739;978;45941;-84
2024/02/22 04:12:36;;;;;;;;;;;;;;;12.52;100.00;101973.81;143734;983;47008;-84
2024/02/22 04:15:03;;;;;;;;;;;;;;;12.59;100.00;101982.03;143741;981;46008;-83
2024/02/22 04:17:29;;;;;;;;;;;;;;;12.60;100.00;101978.31;143738;984;45934;-84
2024/02/22 04:19:56;;;;;;;;;;;;;;;12.59;100.00;101977.44;143736;978;47002;-83
2024/02/22 04:22:22;;;;;;;;;;;;;;;12.56;100.00;101972.41;143728;984;55000;-84
2024/02/22 04:24:48;;;;;;;;;;;;;;;12.41;100.00;101975.06;143732;982;47000;-84
2024/02/22 04:27:15;;;;;;;;;;;;;;;12.49;100.00;101967.94;143737;985;48010;-83
2024/02/22 04:29:41;;;;;;;;;;;;;;;12.53;100.00;101982.72;143739;978;45942;-84
2024/02/22 04:32:08;;;;;;;;;;;;;;;12.48;100.00;101977.03;143739;984;45932;-85
2024/02/22 04:34:34;;;;;;;;;;;;;;;12.44;100.00;101985.47;143742;982;45012;-83
2024/02/22 04:37:01;;;;;;;;;;;;;;;12.41;100.00;101983.16;143733;985;47011;-84
2024/02/22 04:39:27;;;;;;;;;;;;;;;12.42;100.00;101986.69;143737;978;47002;-85
2024/02/22 04:41:54;;;;;;;;;;;;;;;12.47;100.00;101983.44;143739;986;45932;-85
2024/02/22 04:44:27;;;;;;;;;;;;;;;12.51;100.00;101979.37;143733;981;47000;-84
2024/02/22 04:46:55;;;;;;;;;;;;;;;12.55;100.00;101981.53;143733;985;46934;-85
2024/02/22 04:49:22;;;;;;;;;;;;;;;12.53;100.00;101983.56;143739;978;45942;-85
2024/02/22 04:51:48;;;;;;;;;;;;;;;12.49;100.00;101987.66;143732;982;47019;-84
2024/02/22 04:54:15;;;;;;;;;;;;;;;12.54;100.00;101987.09;143740;982;46012;-84
2024/02/22 04:56:41;;;;;;;;;;;;;;;12.53;100.00;101988.94;143721;984;46010;-83
2024/02/22 04:59:08;;;;;;;;;;;;;;;12.51;100.00;101991.00;143735;978;47002;-85
2024/02/22 05:01:34;;;;;;;;;;;;;;;12.51;100.00;101990.16;143730;984;48000;-85
2024/02/22 05:04:00;;;;;;;;;;;;;;;12.42;100.00;101986.69;143740;982;47000;-85
2024/02/22 05:06:26;;;;;;;;;;;;;;;12.48;100.00;101993.19;143738;985;46008;-85
2024/02/22 05:08:53;;;;;;;;;;;;;;;12.53;100.00;101998.91;143737;977;46002;-85
2024/02/22 05:11:19;;;;;;;;;;;;;;;12.56;100.00;101998.53;143732;986;46008;-84
2024/02/22 05:13:46;;;;;;;;;;;;;;;12.56;100.00;102002.06;143732;978;47000;-85
2024/02/22 05:16:12;;;;;;;;;;;;;;;12.58;100.00;102004.59;143737;985;47010;-84
2024/02/22 05:18:39;;;;;;;;;;;;;;;12.59;100.00;101998.19;143739;978;45942;-84
2024/02/22 05:21:05;;;;;;;;;;;;;;;12.57;100.00;102011.00;143739;985;45932;-84
2024/02/22 05:23:31;;;;;;;;;;;;;;;12.57;100.00;102008.31;143737;981;48000;-83
2024/02/22 05:25:58;;;;;;;;;;;;;;;12.55;100.00;102008.47;143733;985;51002;-84
2024/02/22 05:28:24;;;;;;;;;;;;;;;12.56;100.00;102020.09;143737;978;47002;-84
2024/02/22 05:30:51;;;;;;;;;;;;;;;12.58;100.00;102013.50;143735;977;48008;-82
2024/02/22 05:33:17;;;;;;;;;;;;;;;12.56;100.00;102018.22;143738;982;46004;-84
2024/02/22 05:35:43;;;;;;;;;;;;;;;12.57;100.00;102025.31;143740;985;45934;-85
2024/02/22 05:38:10;;;;;;;;;;;;;;;12.64;100.00;102030.81;143739;977;45942;-84
2024/02/22 05:40:36;;;;;;;;;;;;;;;12.64;100.00;102033.50;143739;985;45932;-85
2024/02/22 05:43:02;;;;;;;;;;;;;;;12.63;100.00;102042.59;143739;982;48000;-83
2024/02/22 05:45:37;;;;;;;;;;;;;;;12.66;100.00;102044.13;143739;983;45934;-83
2024/02/22 05:48:04;;;;;;;;;;;;;;;12.64;100.00;102048.84;143730;978;48002;-83
2024/02/22 05:50:30;;;;;;;;;;;;;;;12.62;100.00;102045.50;143738;985;45932;-82
2024/02/22 05:52:56;;;;;;;;;;;;;;;12.57;100.00;102052.25;143742;981;45012;-82
2024/02/22 05:55:23;;;;;;;;;;;;;;;12.51;100.00;102052.12;143734;985;47010;-82
2024/02/22 05:57:49;;;;;;;;;;;;;;;12.53;100.00;102045.53;143725;978;53002;-83
2024/02/22 06:00:16;;;;;;;;;;;;;;;12.56;100.00;102050.56;143737;982;46000;-83
2024/02/22 06:02:43;;;;;;;;;;;;;;;12.60;100.00;102053.78;143738;982;47000;-83
2024/02/22 06:05:09;;;;;;;;;;;;;;;12.63;100.00;102056.09;143738;978;46022;-84
2024/02/22 06:07:36;;;;;;;;;;;;;;;12.67;100.00;102056.59;143735;977;48002;-83
2024/02/22 06:10:03;;;;;;;;;;;;;;;12.72;100.00;102057.72;143738;986;46024;-81
2024/02/22 06:12:29;;;;;;;;;;;;;;;12.83;100.00;102066.38;143735;982;50000;-82
2024/02/22 06:14:56;;;;;;;;;;;;;;;12.95;100.00;102056.03;143736;979;47010;-82
2024/02/22 06:17:22;;;;;;;;;;;;;;;13.00;100.00;102070.63;143738;978;46016;-83
2024/02/22 06:19:48;;;;;;;;;;;;;;;12.99;100.00;102068.97;143736;986;47008;-83
2024/02/22 06:22:15;;;;;;;;;;;;;;;13.06;100.00;102068.25;143737;981;48000;-82
2024/02/22 06:24:41;;;;;;;;;;;;;;;13.16;100.00;102075.06;143736;981;46002;-83
2024/02/22 06:27:07;;;;;;;;;;;;;;;13.25;100.00;102069.56;143731;978;49002;-82
2024/02/22 06:29:34;;;;;;;;;;;;;;;13.32;100.00;102074.09;143738;985;46008;-84
2024/02/22 06:32:00;;;;;;;;;;;;;;;13.40;100.00;102083.09;143738;982;49000;-83
2024/02/22 06:34:27;;;;;;;;;;;;;;;13.45;100.00;102070.75;143736;986;47010;-84
2024/02/22 06:36:53;;;;;;;;;;;;;;;13.54;100.00;102071.50;143735;977;48002;-82
2024/02/22 06:39:19;;;;;;;;;;;;;;;13.58;100.00;102069.31;143737;984;46000;-83
2024/02/22 06:41:46;;;;;;;;;;;;;;;13.61;100.00;102067.06;143737;974;47000;-83
2024/02/22 06:44:12;;;;;;;;;;;;;;;13.66;100.00;102068.38;143735;986;47010;-83
2024/02/22 06:46:42;;;;;;;;;;;;;;;13.75;100.00;102068.09;143731;978;48002;-83
2024/02/22 06:49:08;;;;;;;;;;;;;;;13.64;100.00;102071.25;143734;986;47932;-83
2024/02/22 06:51:35;;;;;;;;;;;;;;;13.73;100.00;102072.84;143735;982;48000;-83
2024/02/22 06:54:01;;;;;;;;;;;;;;;13.73;100.00;102067.44;143741;985;45934;-83
2024/02/22 06:56:27;;;;;;;;;;;;;;;13.77;100.00;102068.72;143735;978;47005;-83
2024/02/22 06:58:53;;;;;;;;;;;;;;;13.90;100.00;102073.47;143739;985;45934;-83
2024/02/22 07:01:20;;;;;;;;;;;;;;;13.99;100.00;102073.38;143739;982;47002;-83
2024/02/22 07:03:46;;;;;;;;;;;;;;;14.12;100.00;102075.44;143716;984;53016;-83
2024/02/22 07:06:13;;;;;;;;;;;;;;;14.17;100.00;102084.63;143734;977;48004;-83
2024/02/22 07:08:39;;;;;;;;;;;;;;;14.27;100.00;102080.78;143732;980;47020;-83
2024/02/22 07:11:05;;;;;;;;;;;;;;;14.36;100.00;102074.25;143741;982;46002;-83
2024/02/22 07:13:35;;;;;;;;;;;;;;;14.48;100.00;102075.41;143737;985;47012;-82
2024/02/22 07:16:01;;;;;;;;;;;;;;;14.59;100.00;102067.81;143733;977;47013;-82
2024/02/22 07:18:28;;;;;;;;;;;;;;;14.60;100.00;102070.34;143738;977;46002;-83
2024/02/22 07:21:02;;;;;;;;;;;;;;;14.77;99.71;102053.91;143737;982;47002;-78
2024/02/22 07:23:28;;;;;;;;;;;;;;;14.92;98.37;102053.81;143735;985;46013;-84
2024/02/22 07:25:55;;;;;;;;;;;;;;;15.03;96.57;102057.84;143734;978;46939;-84
2024/02/22 07:28:22;;;;;;;;;;;;;;;15.12;96.03;102059.41;143735;982;48011;-83
2024/02/22 07:30:49;;;;;;;;;;;;;;;15.22;96.55;102062.59;143739;982;48002;-83
2024/02/22 07:33:16;;;;;;;;;;;;;;;15.30;96.57;102053.50;143738;977;46031;-83
2024/02/22 07:35:43;;;;;;;;;;;;;;;15.41;96.06;102057.53;143739;978;45940;-83
2024/02/22 07:38:09;;;;;;;;;;;;;;;15.48;96.41;102063.84;143737;985;47010;-82
2024/02/22 07:40:36;;;;;;;;;;;;;;;15.53;95.53;102061.34;143740;981;47002;-83
2024/02/22 07:43:02;;;;;;;;;;;;;;;15.60;94.85;102059.53;143737;985;47013;-83
2024/02/22 07:45:28;;;;;;;;;;;;;;;15.72;94.78;102061.66;143735;978;47004;-83
2024/02/22 07:47:58;;;;;;;;;;;;;;;15.81;94.61;102057.75;143739;984;45933;-84
2024/02/22 07:50:27;;;;;;;;;;;;;;;15.87;93.93;102059.72;143737;982;47002;-83
2024/02/22 07:52:54;;;;;;;;;;;;;;;16.00;93.29;102053.50;143736;985;47012;-83
2024/02/22 07:55:20;;;;;;;;;;;;;;;16.13;92.10;102046.47;143732;978;47004;-82
2024/02/22 07:57:47;;;;;;;;;;;;;;;16.24;91.50;102051.28;143739;981;46002;-83
2024/02/22 08:00:13;;;;;;;;;;;;;;;16.26;91.93;102042.94;143742;982;46002;-83
2024/02/22 08:02:41;;;;;;;;;;;;;;;16.40;91.80;102050.09;143739;985;46012;-83
2024/02/22 08:05:09;;;;;;;;;;;;;;;16.60;90.84;102047.41;143740;978;45940;-83
2024/02/22 08:07:37;;;;;;;;;;;;;;;16.72;89.14;102044.09;143739;984;45934;-83
2024/02/22 08:10:03;;;;;;;;;;;;;;;16.87;88.80;102043.91;143733;982;48002;-82
2024/02/22 08:12:31;;;;;;;;;;;;;;;16.93;87.06;102034.94;143738;985;47012;-83
2024/02/22 08:14:57;;;;;;;;;;;;;;;17.09;87.07;102028.25;143732;977;47004;-83
2024/02/22 08:17:23;;;;;;;;;;;;;;;17.15;85.92;102024.72;143734;984;47010;-82
2024/02/22 08:19:50;;;;;;;;;;;;;;;17.23;84.88;102031.81;143741;982;47002;-84
2024/02/22 08:22:16;;;;;;;;;;;;;;;17.23;84.36;102038.06;143739;985;46012;-82
2024/02/22 08:24:42;;;;;;;;;;;;;;;17.39;82.98;102020.50;143736;978;47004;-83
2024/02/22 08:27:10;;;;;;;;;;;;;;;17.55;82.82;102026.50;143738;985;45934;-83
2024/02/22 08:29:36;;;;;;;;;;;;;;;17.68;82.01;102026.47;143738;982;47002;-84
2024/02/22 08:32:04;;;;;;;;;;;;;;;17.87;81.38;102024.75;143738;985;46012;-82
2024/02/22 08:34:34;;;;;;;;;;;;;;;17.99;81.01;102015.94;143736;978;47004;-83
2024/02/22 08:37:00;;;;;;;;;;;;;;;18.07;79.04;102018.41;143729;984;54002;-83
2024/02/22 08:39:27;;;;;;;;;;;;;;;18.24;78.15;102018.72;143739;982;47002;-84
2024/02/22 08:41:53;;;;;;;;;;;;;;;18.44;77.43;102020.47;143739;985;45932;-83
2024/02/22 08:44:19;;;;;;;;;;;;;;;18.47;77.11;102022.78;143738;977;46004;-83
2024/02/22 08:46:46;;;;;;;;;;;;;;;18.63;76.07;102019.50;143735;984;47006;-83
2024/02/22 08:49:12;;;;;;;;;;;;;;;18.73;74.98;102021.75;143742;980;45012;-82
2024/02/22 08:51:38;;;;;;;;;;;;;;;18.76;74.75;102017.72;143739;983;45938;-83
2024/02/22 08:54:05;;;;;;;;;;;;;;;18.99;74.96;102014.41;143732;978;47002;-82
2024/02/22 08:56:31;;;;;;;;;;;;;;;19.21;75.71;102019.47;143728;983;47934;-84
2024/02/22 08:58:57;;;;;;;;;;;;;;;19.20;76.63;102010.47;143740;979;46000;-83
2024/02/22 09:01:24;;;;;;;;;;;;;;;19.42;75.16;102017.38;143739;984;45937;-82
2024/02/22 09:03:50;;;;;;;;;;;;;;;19.56;74.84;102013.44;143737;985;47013;-84
2024/02/22 09:06:16;;;;;;;;;;;;;;;19.86;74.27;102015.38;143724;986;58004;-83
2024/02/22 09:08:43;;;;;;;;;;;;;;;19.99;73.42;102017.13;143733;982;52014;-84
2024/02/22 09:11:10;;;;;;;;;;;;;;;20.16;73.68;102020.06;143739;985;45932;-84
2024/02/22 09:13:36;;;;;;;;;;;;;;;20.29;72.32;102008.12;143739;977;45940;-84
2024/02/22 09:16:03;;;;;;;;;;;;;;;20.35;72.14;102001.72;143739;985;45933;-84
2024/02/22 09:18:29;;;;;;;;;;;;;;;20.63;71.76;102007.59;143731;982;49002;-84
2024/02/22 09:20:56;;;;;;;;;;;;;;;22.08;68.98;101941.34;143739;985;45932;-84
2024/02/22 09:23:22;;;;;;;;;;;;;;;27.43;58.12;101867.41;143739;978;45940;-84
2024/02/22 09:25:48;;;;;;;;;;;;;;;31.56;46.60;101857.84;143740;986;45934;-84
2024/02/22 09:28:15;;;;;;;;;;;;;;;33.96;40.93;101849.59;143742;981;45012;-85
2024/02/22 09:30:41;;;;;;;;;;;;;;;35.45;36.97;101841.56;143734;985;47012;-84
2024/02/22 09:33:08;;;;;;;;;;;;;;;35.14;34.62;101843.59;143740;978;45940;-85
2024/02/22 09:35:34;;;;;;;;;;;;;;;36.04;35.02;101834.09;143739;985;45933;-85
2024/02/22 09:38:00;;;;;;;;;;;;;;;37.44;33.04;101843.28;143733;982;48002;-85
2024/02/22 09:40:26;;;;;;;;;;;;;;;38.49;32.28;101831.97;143737;985;47012;-86
2024/02/22 09:42:53;;;;;;;;;;;;;;;38.41;32.36;101833.00;143739;977;45940;-84
2024/02/22 09:45:19;;;;;;;;;;;;;;;39.15;31.41;101834.25;143738;982;46010;-84
2024/02/22 09:47:46;;;;;;;;;;;;;;;39.96;30.44;101837.44;143741;982;46002;-84
2024/02/22 09:50:12;;;;;;;;;;;;;;;40.74;30.57;101834.25;143737;985;46012;-84
2024/02/22 09:52:43;;;;;;;;;;;;;;;40.81;29.11;101841.19;143737;978;46004;-85
2024/02/22 09:55:15;;;;;;;;;;;;;;;40.96;29.50;101843.00;143737;987;46010;-75
2024/02/22 09:57:41;;;;;;;;;;;;;;;41.02;28.64;101852.75;143739;981;46002;-83
2024/02/22 10:00:07;;;;;;;;;;;;;;;41.02;27.60;101861.19;143734;985;47012;-84
2024/02/22 10:02:35;;;;;;;;;;;;;;;41.27;28.08;101865.53;143739;978;45940;-83
2024/02/22 10:05:01;;;;;;;;;;;;;;;40.95;27.68;101861.09;143733;985;46014;-83
2024/02/22 10:07:32;;;;;;;;;;;;;;;41.00;28.32;101866.41;143742;982;45012;-84
2024/02/22 10:09:58;;;;;;;;;;;;;;;40.20;28.93;101894.50;143728;986;48013;-83
2024/02/22 10:12:25;;;;;;;;;;;;;;;36.61;30.62;101915.53;143740;977;45941;-85
2024/02/22 10:14:52;;;;;;;;;;;;;;;33.97;33.69;101912.53;143738;981;46010;-83
2024/02/22 10:17:21;;;;;;;;;;;;;;;33.19;34.58;101913.28;143741;982;45013;-83
2024/02/22 10:19:54;;;;;;;;;;;;;;;32.29;35.65;101907.72;143738;985;46013;-84
2024/02/22 10:22:24;;;;;;;;;;;;;;;31.24;37.18;101902.13;143740;978;45014;-83
2024/02/22 10:24:52;;;;;;;;;;;;;;;30.51;37.26;101899.16;143736;980;47010;-83
2024/02/22 10:27:19;;;;;;;;;;;;;;;29.81;37.45;101910.00;143738;981;46002;-84
2024/02/22 10:29:46;;;;;;;;;;;;;;;28.72;37.97;101910.56;143736;985;47012;-83
2024/02/22 10:32:18;;;;;;;;;;;;;;;28.07;40.03;101897.87;143732;973;47027;-85
2024/02/22 10:34:49;;;;;;;;;;;;;;;27.82;40.36;101903.31;143739;985;45935;-83
2024/02/22 10:37:16;;;;;;;;;;;;;;;27.61;41.24;101891.59;143743;982;45012;-83
2024/02/22 10:39:44;;;;;;;;;;;;;;;27.43;40.74;101884.81;143739;985;45932;-83
2024/02/22 10:42:12;;;;;;;;;;;;;;;27.31;41.58;101876.03;143739;977;45940;-84
2024/02/22 10:44:38;;;;;;;;;;;;;;;27.23;41.92;101877.44;143734;972;47010;-83
2024/02/22 10:47:05;;;;;;;;;;;;;;;26.80;42.12;101877.91;143721;982;53002;-83
2024/02/22 10:49:32;;;;;;;;;;;;;;;26.00;42.82;101865.59;143739;985;45933;-83
2024/02/22 10:52:00;;;;;;;;;;;;;;;26.02;43.82;101869.72;143737;978;46004;-83
2024/02/22 10:54:29;;;;;;;;;;;;;;;25.96;43.79;101858.97;143739;985;45934;-84
2024/02/22 10:56:55;;;;;;;;;;;;;;;25.54;44.54;101864.47;143740;981;47002;-83
2024/02/22 10:59:23;;;;;;;;;;;;;;;25.71;44.46;101846.87;143733;986;48012;-83
2024/02/22 11:01:50;;;;;;;;;;;;;;;25.72;44.74;101849.34;143735;978;47004;-84
2024/02/22 11:04:17;;;;;;;;;;;;;;;25.19;45.03;101838.50;143737;985;47010;-84
2024/02/22 11:06:46;;;;;;;;;;;;;;;24.89;46.33;101845.50;143742;982;46011;-83
2024/02/22 11:09:17;;;;;;;;;;;;;;;24.95;45.97;101838.16;143734;986;48010;-85
2024/02/22 11:11:43;;;;;;;;;;;;;;;25.01;46.24;101838.97;143738;978;46014;-84
2024/02/22 11:14:10;;;;;;;;;;;;;;;24.82;45.97;101829.28;143734;985;47008;-85
2024/02/22 11:16:37;;;;;;;;;;;;;;;24.89;46.45;101830.97;143742;982;45013;-83
2024/02/22 11:19:12;;;;;;;;;;;;;;;24.84;46.87;101823.53;143735;973;47011;-85
2024/02/22 11:21:42;;;;;;;;;;;;;;;24.55;47.33;101828.56;143737;978;46013;-84
2024/02/22 11:24:12;;;;;;;;;;;;;;;24.45;47.36;101827.41;143731;985;47000;-86
2024/02/22 11:26:38;;;;;;;;;;;;;;;24.38;47.19;101821.34;143739;981;48000;-83
2024/02/22 11:29:04;;;;;;;;;;;;;;;24.17;48.62;101817.66;143734;986;47010;-85
2024/02/22 11:31:31;;;;;;;;;;;;;;;24.34;47.85;101809.22;143738;978;46002;-84
2024/02/22 11:33:58;;;;;;;;;;;;;;;24.10;48.93;101801.38;143732;980;47020;-84
2024/02/22 11:36:25;;;;;;;;;;;;;;;24.07;48.78;101813.72;143742;982;45012;-85
2024/02/22 11:39:06;;;;;;;;;;;;;;;24.13;48.81;101805.53;143737;985;47010;-84
2024/02/22 11:41:33;;;;;;;;;;;;;;;23.91;49.36;101793.56;143733;977;49002;-84
2024/02/22 11:44:02;;;;;;;;;;;;;;;24.02;49.55;101779.94;143736;985;47008;-86
2024/02/22 11:46:32;;;;;;;;;;;;;;;24.02;49.40;101788.16;143738;982;47000;-85
2024/02/22 11:48:59;;;;;;;;;;;;;;;24.00;49.55;101780.22;143739;984;45926;-85
2024/02/22 11:51:26;;;;;;;;;;;;;;;24.15;49.15;101781.41;143740;978;45940;-84
2024/02/22 11:53:57;;;;;;;;;;;;;;;23.77;48.90;101773.97;143738;984;46896;-83
2024/02/22 11:56:23;;;;;;;;;;;;;;;23.82;48.50;101766.88;143733;981;47002;-84
2024/02/22 11:58:50;;;;;;;;;;;;;;;23.74;48.52;101770.91;143738;986;46012;-85
2024/02/22 12:01:16;;;;;;;;;;;;;;;23.70;48.76;101759.63;143739;978;45940;-85
2024/02/22 12:03:43;;;;;;;;;;;;;;;23.73;48.08;101750.88;143739;985;45934;-86
2024/02/22 12:06:11;;;;;;;;;;;;;;;23.57;48.89;101749.91;143742;982;45012;-84
2024/02/22 12:08:37;;;;;;;;;;;;;;;23.58;48.98;101748.03;143734;986;48012;-84
2024/02/22 12:11:06;;;;;;;;;;;;;;;23.53;48.62;101756.19;143739;978;45940;-83
2024/02/22 12:13:32;;;;;;;;;;;;;;;23.20;47.55;101736.13;143737;984;47010;-83
2024/02/22 12:16:08;;;;;;;;;;;;;;;23.20;48.40;101734.22;143741;982;46002;-82
2024/02/22 12:18:38;;;;;;;;;;;;;;;23.17;47.67;101737.47;143739;985;45932;-81
2024/02/22 12:21:10;;;;;;;;;;;;;;;23.15;48.46;101736.91;143739;978;45939;-82
2024/02/22 12:23:36;;;;;;;;;;;;;;;23.10;48.90;101734.13;143728;973;50002;-82
2024/02/22 12:26:09;;;;;;;;;;;;;;;22.98;48.62;101729.63;143742;981;45023;-83
2024/02/22 12:28:36;;;;;;;;;;;;;;;22.83;49.05;101732.19;143740;986;45932;-81
2024/02/22 12:31:03;;;;;;;;;;;;;;;22.78;49.16;101732.13;143736;978;46004;-82